sensor_id;sensor_type;location;lat;lon;timestamp;P1;durP1;ratioP1;P2;durP2;ratioP2
79173;SDS011;68599;49.142;9.124;2024-03-06T00:01:04;6.50;;;3.20;;
79173;SDS011;68599;49.142;9.124;2024-03-06T00:03:30;8.40;;;3.40;;
79173;SDS011;68599;49.142;9.124;2024-03-06T00:05:57;6.00;;;3.20;;
79173;SDS011;68599;49.142;9.124;2024-03-06T00:08:23;6.60;;;3.40;;
79173;SDS011;68599;49.142;9.124;2024-03-06T00:10:50;6.20;;;3.20;;
79173;SDS011;68599;49.142;9.124;2024-03-06T00:13:16;5.30;;;3.10;;
79173;SDS011;68599;49.142;9.124;2024-03-06T00:15:43;6.70;;;2.70;;
79173;SDS011;68599;49.142;9.124;2024-03-06T00:18:09;8.20;;;2.60;;
79173;SDS011;68599;49.142;9.124;2024-03-06T00:20:37;5.10;;;3.20;;
79173;SDS011;68599;49.142;9.124;2024-03-06T00:23:03;5.00;;;2.80;;
79173;SDS011;68599;49.142;9.124;2024-03-06T00:25:30;6.30;;;2.80;;
79173;SDS011;68599;49.142;9.124;2024-03-06T00:27:57;7.40;;;2.80;;
79173;SDS011;68599;49.142;9.124;2024-03-06T00:30:23;5.50;;;2.60;;
79173;SDS011;68599;49.142;9.124;2024-03-06T00:32:50;4.50;;;2.70;;
79173;SDS011;68599;49.142;9.124;2024-03-06T00:35:16;5.80;;;2.80;;
79173;SDS011;68599;49.142;9.124;2024-03-06T00:37:43;4.90;;;2.70;;
79173;SDS011;68599;49.142;9.124;2024-03-06T00:40:09;5.40;;;2.80;;
79173;SDS011;68599;49.142;9.124;2024-03-06T00:42:37;5.30;;;2.20;;
79173;SDS011;68599;49.142;9.124;2024-03-06T00:45:07;4.00;;;2.30;;
79173;SDS011;68599;49.142;9.124;2024-03-06T00:50:01;5.20;;;2.20;;
79173;SDS011;68599;49.142;9.124;2024-03-06T00:52:27;6.50;;;2.30;;
79173;SDS011;68599;49.142;9.124;2024-03-06T00:54:54;4.40;;;2.30;;
79173;SDS011;68599;49.142;9.124;2024-03-06T00:57:20;4.60;;;2.10;;
79173;SDS011;68599;49.142;9.124;2024-03-06T00:59:47;3.40;;;2.00;;
79173;SDS011;68599;49.142;9.124;2024-03-06T01:02:13;3.60;;;1.90;;
79173;SDS011;68599;49.142;9.124;2024-03-06T01:04:40;4.80;;;2.30;;
79173;SDS011;68599;49.142;9.124;2024-03-06T01:07:07;4.90;;;2.20;;
79173;SDS011;68599;49.142;9.124;2024-03-06T01:09:33;3.90;;;2.00;;
79173;SDS011;68599;49.142;9.124;2024-03-06T01:12:00;4.00;;;1.90;;
79173;SDS011;68599;49.142;9.124;2024-03-06T01:14:26;4.80;;;2.40;;
79173;SDS011;68599;49.142;9.124;2024-03-06T01:16:53;4.80;;;2.40;;
79173;SDS011;68599;49.142;9.124;2024-03-06T01:19:19;4.60;;;2.50;;
79173;SDS011;68599;49.142;9.124;2024-03-06T01:21:46;3.80;;;2.20;;
79173;SDS011;68599;49.142;9.124;2024-03-06T01:24:12;5.20;;;2.60;;
79173;SDS011;68599;49.142;9.124;2024-03-06T01:26:39;4.70;;;2.40;;
79173;SDS011;68599;49.142;9.124;2024-03-06T01:29:06;5.60;;;2.30;;
79173;SDS011;68599;49.142;9.124;2024-03-06T01:31:33;4.70;;;2.60;;
79173;SDS011;68599;49.142;9.124;2024-03-06T01:33:59;3.90;;;2.30;;
79173;SDS011;68599;49.142;9.124;2024-03-06T01:36:26;3.80;;;2.20;;
79173;SDS011;68599;49.142;9.124;2024-03-06T01:38:52;5.50;;;2.50;;
79173;SDS011;68599;49.142;9.124;2024-03-06T01:41:19;3.60;;;2.40;;
79173;SDS011;68599;49.142;9.124;2024-03-06T01:43:46;3.60;;;2.30;;
79173;SDS011;68599;49.142;9.124;2024-03-06T01:46:13;3.40;;;2.10;;
79173;SDS011;68599;49.142;9.124;2024-03-06T01:48:39;5.60;;;3.30;;
79173;SDS011;68599;49.142;9.124;2024-03-06T01:51:06;3.10;;;2.30;;
79173;SDS011;68599;49.142;9.124;2024-03-06T01:53:33;4.50;;;2.40;;
79173;SDS011;68599;49.142;9.124;2024-03-06T01:56:01;3.50;;;2.00;;
79173;SDS011;68599;49.142;9.124;2024-03-06T01:58:30;4.70;;;2.00;;
79173;SDS011;68599;49.142;9.124;2024-03-06T02:01:00;3.60;;;2.40;;
79173;SDS011;68599;49.142;9.124;2024-03-06T02:05:55;4.10;;;1.90;;
79173;SDS011;68599;49.142;9.124;2024-03-06T02:08:25;3.90;;;2.20;;
79173;SDS011;68599;49.142;9.124;2024-03-06T02:10:51;4.20;;;2.90;;
79173;SDS011;68599;49.142;9.124;2024-03-06T02:13:18;4.50;;;2.60;;
79173;SDS011;68599;49.142;9.124;2024-03-06T02:15:45;3.50;;;2.10;;
79173;SDS011;68599;49.142;9.124;2024-03-06T02:18:12;3.90;;;2.20;;
79173;SDS011;68599;49.142;9.124;2024-03-06T02:20:39;3.80;;;2.20;;
79173;SDS011;68599;49.142;9.124;2024-03-06T02:23:07;3.50;;;2.40;;
79173;SDS011;68599;49.142;9.124;2024-03-06T02:25:34;3.40;;;2.10;;
79173;SDS011;68599;49.142;9.124;2024-03-06T02:28:01;2.80;;;2.00;;
79173;SDS011;68599;49.142;9.124;2024-03-06T02:30:27;5.30;;;2.10;;
79173;SDS011;68599;49.142;9.124;2024-03-06T02:32:56;4.10;;;2.30;;
79173;SDS011;68599;49.142;9.124;2024-03-06T02:35:23;4.20;;;2.60;;
79173;SDS011;68599;49.142;9.124;2024-03-06T02:37:50;5.40;;;3.40;;
79173;SDS011;68599;49.142;9.124;2024-03-06T02:40:16;3.70;;;2.20;;
79173;SDS011;68599;49.142;9.124;2024-03-06T02:42:43;3.70;;;2.10;;
79173;SDS011;68599;49.142;9.124;2024-03-06T02:45:10;5.00;;;2.20;;
79173;SDS011;68599;49.142;9.124;2024-03-06T02:47:36;4.40;;;2.50;;
79173;SDS011;68599;49.142;9.124;2024-03-06T02:50:03;5.50;;;2.20;;
79173;SDS011;68599;49.142;9.124;2024-03-06T02:52:31;4.20;;;2.40;;
79173;SDS011;68599;49.142;9.124;2024-03-06T02:54:58;4.40;;;2.20;;
79173;SDS011;68599;49.142;9.124;2024-03-06T02:57:26;4.60;;;2.50;;
79173;SDS011;68599;49.142;9.124;2024-03-06T02:59:57;5.60;;;2.70;;
79173;SDS011;68599;49.142;9.124;2024-03-06T03:02:24;3.60;;;2.40;;
79173;SDS011;68599;49.142;9.124;2024-03-06T03:04:51;5.00;;;2.90;;
79173;SDS011;68599;49.142;9.124;2024-03-06T03:07:19;4.30;;;2.20;;
79173;SDS011;68599;49.142;9.124;2024-03-06T03:09:45;3.90;;;2.40;;
79173;SDS011;68599;49.142;9.124;2024-03-06T03:12:13;4.90;;;2.50;;
79173;SDS011;68599;49.142;9.124;2024-03-06T03:14:40;4.40;;;2.40;;
79173;SDS011;68599;49.142;9.124;2024-03-06T03:17:07;3.50;;;2.20;;
79173;SDS011;68599;49.142;9.124;2024-03-06T03:19:34;4.20;;;2.30;;
79173;SDS011;68599;49.142;9.124;2024-03-06T03:22:01;5.00;;;2.60;;
79173;SDS011;68599;49.142;9.124;2024-03-06T03:24:30;4.60;;;2.40;;
79173;SDS011;68599;49.142;9.124;2024-03-06T03:26:57;3.90;;;2.00;;
79173;SDS011;68599;49.142;9.124;2024-03-06T03:29:23;4.00;;;2.20;;
79173;SDS011;68599;49.142;9.124;2024-03-06T03:31:50;2.90;;;2.00;;
79173;SDS011;68599;49.142;9.124;2024-03-06T03:34:16;4.20;;;2.10;;
79173;SDS011;68599;49.142;9.124;2024-03-06T03:36:43;4.40;;;2.20;;
79173;SDS011;68599;49.142;9.124;2024-03-06T03:39:10;4.50;;;2.30;;
79173;SDS011;68599;49.142;9.124;2024-03-06T03:44:13;3.80;;;2.40;;
79173;SDS011;68599;49.142;9.124;2024-03-06T03:46:40;4.30;;;1.90;;
79173;SDS011;68599;49.142;9.124;2024-03-06T03:49:07;3.70;;;2.40;;
79173;SDS011;68599;49.142;9.124;2024-03-06T03:51:37;4.20;;;2.80;;
79173;SDS011;68599;49.142;9.124;2024-03-06T03:54:05;3.90;;;2.40;;
79173;SDS011;68599;49.142;9.124;2024-03-06T03:56:32;6.20;;;2.70;;
79173;SDS011;68599;49.142;9.124;2024-03-06T03:58:59;5.20;;;2.70;;
79173;SDS011;68599;49.142;9.124;2024-03-06T04:01:26;2.70;;;1.50;;
79173;SDS011;68599;49.142;9.124;2024-03-06T04:03:53;4.40;;;1.80;;
79173;SDS011;68599;49.142;9.124;2024-03-06T04:06:19;4.00;;;2.30;;
79173;SDS011;68599;49.142;9.124;2024-03-06T04:08:46;2.90;;;2.00;;
79173;SDS011;68599;49.142;9.124;2024-03-06T04:11:12;4.30;;;2.40;;
79173;SDS011;68599;49.142;9.124;2024-03-06T04:13:39;4.40;;;2.40;;
79173;SDS011;68599;49.142;9.124;2024-03-06T04:16:06;4.60;;;2.40;;
79173;SDS011;68599;49.142;9.124;2024-03-06T04:18:33;4.40;;;1.80;;
79173;SDS011;68599;49.142;9.124;2024-03-06T04:21:05;3.90;;;2.50;;
79173;SDS011;68599;49.142;9.124;2024-03-06T04:23:33;4.40;;;2.40;;
79173;SDS011;68599;49.142;9.124;2024-03-06T04:26:00;4.10;;;2.50;;
79173;SDS011;68599;49.142;9.124;2024-03-06T04:28:27;4.90;;;2.40;;
79173;SDS011;68599;49.142;9.124;2024-03-06T04:30:53;4.20;;;2.20;;
79173;SDS011;68599;49.142;9.124;2024-03-06T04:33:20;4.20;;;2.30;;
79173;SDS011;68599;49.142;9.124;2024-03-06T04:35:46;4.20;;;2.50;;
79173;SDS011;68599;49.142;9.124;2024-03-06T04:38:13;4.80;;;3.10;;
79173;SDS011;68599;49.142;9.124;2024-03-06T04:40:40;3.80;;;2.40;;
79173;SDS011;68599;49.142;9.124;2024-03-06T04:43:07;5.50;;;2.60;;
79173;SDS011;68599;49.142;9.124;2024-03-06T04:45:34;4.20;;;2.40;;
79173;SDS011;68599;49.142;9.124;2024-03-06T04:48:00;3.80;;;2.60;;
79173;SDS011;68599;49.142;9.124;2024-03-06T04:50:27;4.30;;;2.40;;
79173;SDS011;68599;49.142;9.124;2024-03-06T04:52:54;4.10;;;2.70;;
79173;SDS011;68599;49.142;9.124;2024-03-06T04:55:22;4.40;;;2.80;;
79173;SDS011;68599;49.142;9.124;2024-03-06T04:57:49;4.30;;;2.50;;
79173;SDS011;68599;49.142;9.124;2024-03-06T05:00:16;4.40;;;2.70;;
79173;SDS011;68599;49.142;9.124;2024-03-06T05:02:44;4.60;;;2.50;;
79173;SDS011;68599;49.142;9.124;2024-03-06T05:05:28;4.40;;;2.60;;
79173;SDS011;68599;49.142;9.124;2024-03-06T05:08:13;4.90;;;2.70;;
79173;SDS011;68599;49.142;9.124;2024-03-06T05:10:56;4.10;;;2.60;;
79173;SDS011;68599;49.142;9.124;2024-03-06T05:13:41;6.10;;;3.50;;
79173;SDS011;68599;49.142;9.124;2024-03-06T05:16:25;5.60;;;2.90;;
79173;SDS011;68599;49.142;9.124;2024-03-06T05:19:10;5.30;;;2.60;;
79173;SDS011;68599;49.142;9.124;2024-03-06T05:21:54;5.40;;;2.90;;
79173;SDS011;68599;49.142;9.124;2024-03-06T05:24:38;4.80;;;2.50;;
79173;SDS011;68599;49.142;9.124;2024-03-06T05:27:23;5.60;;;3.00;;
79173;SDS011;68599;49.142;9.124;2024-03-06T05:30:07;4.60;;;2.70;;
79173;SDS011;68599;49.142;9.124;2024-03-06T05:32:52;6.20;;;2.90;;
79173;SDS011;68599;49.142;9.124;2024-03-06T05:35:36;7.50;;;3.00;;
79173;SDS011;68599;49.142;9.124;2024-03-06T05:38:20;5.10;;;2.70;;
79173;SDS011;68599;49.142;9.124;2024-03-06T05:41:05;7.30;;;2.50;;
79173;SDS011;68599;49.142;9.124;2024-03-06T05:43:49;4.80;;;2.60;;
79173;SDS011;68599;49.142;9.124;2024-03-06T05:46:33;4.00;;;2.70;;
79173;SDS011;68599;49.142;9.124;2024-03-06T05:49:17;4.20;;;2.50;;
79173;SDS011;68599;49.142;9.124;2024-03-06T05:52:01;5.10;;;2.70;;
79173;SDS011;68599;49.142;9.124;2024-03-06T05:54:46;3.80;;;2.40;;
79173;SDS011;68599;49.142;9.124;2024-03-06T05:57:30;4.90;;;2.40;;
79173;SDS011;68599;49.142;9.124;2024-03-06T06:00:15;3.50;;;2.80;;
79173;SDS011;68599;49.142;9.124;2024-03-06T06:02:44;6.60;;;2.80;;
79173;SDS011;68599;49.142;9.124;2024-03-06T06:05:12;4.20;;;2.20;;
79173;SDS011;68599;49.142;9.124;2024-03-06T06:07:49;4.10;;;2.60;;
79173;SDS011;68599;49.142;9.124;2024-03-06T06:12:47;2.50;;;1.90;;
79173;SDS011;68599;49.142;9.124;2024-03-06T06:15:14;3.50;;;2.70;;
79173;SDS011;68599;49.142;9.124;2024-03-06T06:20:11;5.10;;;2.70;;
79173;SDS011;68599;49.142;9.124;2024-03-06T06:22:42;4.90;;;2.70;;
79173;SDS011;68599;49.142;9.124;2024-03-06T06:25:09;4.00;;;2.40;;
79173;SDS011;68599;49.142;9.124;2024-03-06T06:27:36;4.80;;;2.60;;
79173;SDS011;68599;49.142;9.124;2024-03-06T06:30:05;4.20;;;2.10;;
79173;SDS011;68599;49.142;9.124;2024-03-06T06:32:33;4.20;;;2.30;;
79173;SDS011;68599;49.142;9.124;2024-03-06T06:37:27;5.00;;;2.20;;
79173;SDS011;68599;49.142;9.124;2024-03-06T06:39:54;3.50;;;2.10;;
79173;SDS011;68599;49.142;9.124;2024-03-06T06:42:20;3.70;;;2.40;;
79173;SDS011;68599;49.142;9.124;2024-03-06T06:44:46;3.70;;;2.60;;
79173;SDS011;68599;49.142;9.124;2024-03-06T06:47:13;4.00;;;2.40;;
79173;SDS011;68599;49.142;9.124;2024-03-06T06:49:39;4.80;;;2.90;;
79173;SDS011;68599;49.142;9.124;2024-03-06T06:52:06;4.80;;;2.60;;
79173;SDS011;68599;49.142;9.124;2024-03-06T06:54:32;3.90;;;2.70;;
79173;SDS011;68599;49.142;9.124;2024-03-06T06:56:59;6.30;;;2.60;;
79173;SDS011;68599;49.142;9.124;2024-03-06T06:59:25;4.60;;;2.40;;
79173;SDS011;68599;49.142;9.124;2024-03-06T07:01:52;2.60;;;1.40;;
79173;SDS011;68599;49.142;9.124;2024-03-06T07:04:18;4.40;;;2.60;;
79173;SDS011;68599;49.142;9.124;2024-03-06T07:06:46;5.20;;;2.80;;
79173;SDS011;68599;49.142;9.124;2024-03-06T07:09:13;8.90;;;2.80;;
79173;SDS011;68599;49.142;9.124;2024-03-06T07:11:42;4.80;;;2.60;;
79173;SDS011;68599;49.142;9.124;2024-03-06T07:14:12;4.30;;;2.50;;
79173;SDS011;68599;49.142;9.124;2024-03-06T07:16:42;4.50;;;2.50;;
79173;SDS011;68599;49.142;9.124;2024-03-06T07:19:10;3.90;;;2.40;;
79173;SDS011;68599;49.142;9.124;2024-03-06T07:21:37;6.10;;;2.50;;
79173;SDS011;68599;49.142;9.124;2024-03-06T07:24:04;4.90;;;2.30;;
79173;SDS011;68599;49.142;9.124;2024-03-06T07:26:32;7.60;;;2.40;;
79173;SDS011;68599;49.142;9.124;2024-03-06T07:29:00;4.70;;;2.60;;
79173;SDS011;68599;49.142;9.124;2024-03-06T07:33:53;4.30;;;2.50;;
79173;SDS011;68599;49.142;9.124;2024-03-06T07:36:20;4.30;;;2.60;;
79173;SDS011;68599;49.142;9.124;2024-03-06T07:38:48;3.70;;;2.50;;
79173;SDS011;68599;49.142;9.124;2024-03-06T07:41:14;4.20;;;2.30;;
79173;SDS011;68599;49.142;9.124;2024-03-06T07:43:40;6.20;;;2.60;;
79173;SDS011;68599;49.142;9.124;2024-03-06T07:46:07;5.00;;;2.30;;
79173;SDS011;68599;49.142;9.124;2024-03-06T07:48:37;4.90;;;2.20;;
79173;SDS011;68599;49.142;9.124;2024-03-06T07:51:05;4.80;;;2.80;;
79173;SDS011;68599;49.142;9.124;2024-03-06T07:53:31;3.80;;;2.10;;
79173;SDS011;68599;49.142;9.124;2024-03-06T07:55:58;5.40;;;2.50;;
79173;SDS011;68599;49.142;9.124;2024-03-06T07:58:24;4.60;;;2.60;;
79173;SDS011;68599;49.142;9.124;2024-03-06T08:00:51;4.00;;;2.40;;
79173;SDS011;68599;49.142;9.124;2024-03-06T08:03:24;4.30;;;2.20;;
79173;SDS011;68599;49.142;9.124;2024-03-06T08:05:51;4.40;;;2.60;;
79173;SDS011;68599;49.142;9.124;2024-03-06T08:08:19;4.20;;;2.60;;
79173;SDS011;68599;49.142;9.124;2024-03-06T08:10:47;4.60;;;2.80;;
79173;SDS011;68599;49.142;9.124;2024-03-06T08:13:14;5.20;;;2.80;;
79173;SDS011;68599;49.142;9.124;2024-03-06T08:15:41;5.00;;;2.90;;
79173;SDS011;68599;49.142;9.124;2024-03-06T08:18:11;4.60;;;2.80;;
79173;SDS011;68599;49.142;9.124;2024-03-06T08:20:40;5.60;;;2.90;;
79173;SDS011;68599;49.142;9.124;2024-03-06T08:23:07;5.50;;;3.00;;
79173;SDS011;68599;49.142;9.124;2024-03-06T08:25:36;4.10;;;2.60;;
79173;SDS011;68599;49.142;9.124;2024-03-06T08:30:31;6.20;;;2.20;;
79173;SDS011;68599;49.142;9.124;2024-03-06T08:32:58;3.50;;;2.40;;
79173;SDS011;68599;49.142;9.124;2024-03-06T08:35:25;4.70;;;2.30;;
79173;SDS011;68599;49.142;9.124;2024-03-06T08:37:52;5.40;;;2.80;;
79173;SDS011;68599;49.142;9.124;2024-03-06T08:40:19;6.10;;;3.10;;
79173;SDS011;68599;49.142;9.124;2024-03-06T08:42:47;5.10;;;2.90;;
79173;SDS011;68599;49.142;9.124;2024-03-06T08:45:14;6.70;;;2.70;;
79173;SDS011;68599;49.142;9.124;2024-03-06T08:47:41;7.10;;;3.10;;
79173;SDS011;68599;49.142;9.124;2024-03-06T08:50:08;5.10;;;2.50;;
79173;SDS011;68599;49.142;9.124;2024-03-06T08:55:03;5.40;;;2.90;;
79173;SDS011;68599;49.142;9.124;2024-03-06T08:57:30;5.70;;;2.80;;
79173;SDS011;68599;49.142;9.124;2024-03-06T08:59:58;4.20;;;2.70;;
79173;SDS011;68599;49.142;9.124;2024-03-06T09:04:51;4.70;;;3.00;;
79173;SDS011;68599;49.142;9.124;2024-03-06T09:07:19;8.00;;;3.40;;
79173;SDS011;68599;49.142;9.124;2024-03-06T09:09:50;5.40;;;2.80;;
79173;SDS011;68599;49.142;9.124;2024-03-06T09:12:18;6.70;;;2.80;;
79173;SDS011;68599;49.142;9.124;2024-03-06T09:14:45;5.00;;;3.00;;
79173;SDS011;68599;49.142;9.124;2024-03-06T09:17:12;4.90;;;3.20;;
79173;SDS011;68599;49.142;9.124;2024-03-06T09:19:41;6.10;;;2.70;;
79173;SDS011;68599;49.142;9.124;2024-03-06T09:22:28;7.40;;;4.60;;
79173;SDS011;68599;49.142;9.124;2024-03-06T09:24:54;5.20;;;2.70;;
79173;SDS011;68599;49.142;9.124;2024-03-06T09:27:22;4.70;;;3.00;;
79173;SDS011;68599;49.142;9.124;2024-03-06T09:29:49;5.00;;;3.20;;
79173;SDS011;68599;49.142;9.124;2024-03-06T09:32:16;5.00;;;2.80;;
79173;SDS011;68599;49.142;9.124;2024-03-06T09:34:45;6.10;;;3.10;;
79173;SDS011;68599;49.142;9.124;2024-03-06T09:37:12;6.10;;;3.20;;
79173;SDS011;68599;49.142;9.124;2024-03-06T09:39:38;7.00;;;3.60;;
79173;SDS011;68599;49.142;9.124;2024-03-06T09:42:05;7.70;;;3.50;;
79173;SDS011;68599;49.142;9.124;2024-03-06T09:44:32;7.00;;;3.90;;
79173;SDS011;68599;49.142;9.124;2024-03-06T09:47:02;6.50;;;4.20;;
79173;SDS011;68599;49.142;9.124;2024-03-06T09:49:30;6.10;;;3.50;;
79173;SDS011;68599;49.142;9.124;2024-03-06T09:51:58;6.30;;;4.00;;
79173;SDS011;68599;49.142;9.124;2024-03-06T09:54:25;6.50;;;3.80;;
79173;SDS011;68599;49.142;9.124;2024-03-06T09:56:53;7.20;;;3.80;;
79173;SDS011;68599;49.142;9.124;2024-03-06T09:59:22;7.20;;;3.70;;
79173;SDS011;68599;49.142;9.124;2024-03-06T10:01:55;5.80;;;3.90;;
79173;SDS011;68599;49.142;9.124;2024-03-06T10:04:28;8.00;;;4.30;;
79173;SDS011;68599;49.142;9.124;2024-03-06T10:06:58;8.60;;;4.50;;
79173;SDS011;68599;49.142;9.124;2024-03-06T10:09:26;7.60;;;4.20;;
79173;SDS011;68599;49.142;9.124;2024-03-06T10:11:53;8.90;;;4.50;;
79173;SDS011;68599;49.142;9.124;2024-03-06T10:14:23;5.60;;;3.90;;
79173;SDS011;68599;49.142;9.124;2024-03-06T10:16:56;8.10;;;4.50;;
79173;SDS011;68599;49.142;9.124;2024-03-06T10:19:25;9.70;;;5.40;;
79173;SDS011;68599;49.142;9.124;2024-03-06T10:21:56;7.90;;;4.90;;
79173;SDS011;68599;49.142;9.124;2024-03-06T10:24:24;8.50;;;5.40;;
79173;SDS011;68599;49.142;9.124;2024-03-06T10:26:55;6.60;;;4.80;;
79173;SDS011;68599;49.142;9.124;2024-03-06T10:29:26;8.00;;;5.20;;
79173;SDS011;68599;49.142;9.124;2024-03-06T10:31:55;7.70;;;4.00;;
79173;SDS011;68599;49.142;9.124;2024-03-06T10:34:29;8.60;;;5.10;;
79173;SDS011;68599;49.142;9.124;2024-03-06T10:36:59;10.20;;;5.60;;
79173;SDS011;68599;49.142;9.124;2024-03-06T10:39:27;10.40;;;5.60;;
79173;SDS011;68599;49.142;9.124;2024-03-06T10:41:57;9.60;;;5.60;;
79173;SDS011;68599;49.142;9.124;2024-03-06T10:44:25;9.20;;;5.70;;
79173;SDS011;68599;49.142;9.124;2024-03-06T10:46:58;9.60;;;5.50;;
79173;SDS011;68599;49.142;9.124;2024-03-06T10:49:27;11.60;;;6.60;;
79173;SDS011;68599;49.142;9.124;2024-03-06T10:51:59;10.30;;;6.40;;
79173;SDS011;68599;49.142;9.124;2024-03-06T10:54:27;10.10;;;6.30;;
79173;SDS011;68599;49.142;9.124;2024-03-06T10:56:56;9.90;;;5.90;;
79173;SDS011;68599;49.142;9.124;2024-03-06T10:59:26;8.40;;;5.80;;
79173;SDS011;68599;49.142;9.124;2024-03-06T11:01:54;9.50;;;6.00;;
79173;SDS011;68599;49.142;9.124;2024-03-06T11:04:25;9.20;;;5.70;;
79173;SDS011;68599;49.142;9.124;2024-03-06T11:06:56;10.00;;;6.40;;
79173;SDS011;68599;49.142;9.124;2024-03-06T11:09:26;8.90;;;5.90;;
79173;SDS011;68599;49.142;9.124;2024-03-06T11:11:54;10.40;;;5.80;;
79173;SDS011;68599;49.142;9.124;2024-03-06T11:14:22;8.90;;;5.60;;
79173;SDS011;68599;49.142;9.124;2024-03-06T11:19:32;8.60;;;5.40;;
79173;SDS011;68599;49.142;9.124;2024-03-06T11:28:18;8.70;;;5.20;;
79173;SDS011;68599;49.142;9.124;2024-03-06T11:31:05;9.60;;;5.70;;
79173;SDS011;68599;49.142;9.124;2024-03-06T11:33:41;8.60;;;5.20;;
79173;SDS011;68599;49.142;9.124;2024-03-06T11:41:26;8.90;;;5.80;;
79173;SDS011;68599;49.142;9.124;2024-03-06T11:44:01;8.00;;;5.70;;
79173;SDS011;68599;49.142;9.124;2024-03-06T11:49:20;11.40;;;7.10;;
79173;SDS011;68599;49.142;9.124;2024-03-06T11:51:48;10.90;;;6.00;;
79173;SDS011;68599;49.142;9.124;2024-03-06T11:54:15;8.60;;;5.70;;
79173;SDS011;68599;49.142;9.124;2024-03-06T11:56:45;10.90;;;6.30;;
79173;SDS011;68599;49.142;9.124;2024-03-06T11:59:13;8.60;;;5.40;;
79173;SDS011;68599;49.142;9.124;2024-03-06T12:01:41;9.60;;;5.50;;
79173;SDS011;68599;49.142;9.124;2024-03-06T12:04:08;10.60;;;6.50;;
79173;SDS011;68599;49.142;9.124;2024-03-06T12:06:35;9.40;;;6.30;;
79173;SDS011;68599;49.142;9.124;2024-03-06T12:09:02;11.20;;;6.30;;
79173;SDS011;68599;49.142;9.124;2024-03-06T12:11:28;10.60;;;6.80;;
79173;SDS011;68599;49.142;9.124;2024-03-06T12:13:57;8.90;;;6.30;;
79173;SDS011;68599;49.142;9.124;2024-03-06T12:16:23;9.90;;;6.50;;
79173;SDS011;68599;49.142;9.124;2024-03-06T12:18:57;11.50;;;6.30;;
79173;SDS011;68599;49.142;9.124;2024-03-06T12:21:30;9.60;;;6.50;;
79173;SDS011;68599;49.142;9.124;2024-03-06T12:24:02;11.30;;;6.70;;
79173;SDS011;68599;49.142;9.124;2024-03-06T12:26:30;13.30;;;7.30;;
79173;SDS011;68599;49.142;9.124;2024-03-06T12:29:07;9.30;;;6.20;;
79173;SDS011;68599;49.142;9.124;2024-03-06T12:31:35;11.10;;;7.00;;
79173;SDS011;68599;49.142;9.124;2024-03-06T12:34:03;13.60;;;7.40;;
79173;SDS011;68599;49.142;9.124;2024-03-06T12:36:31;10.90;;;6.30;;
79173;SDS011;68599;49.142;9.124;2024-03-06T12:38:59;9.40;;;6.00;;
79173;SDS011;68599;49.142;9.124;2024-03-06T12:41:27;11.90;;;6.90;;
79173;SDS011;68599;49.142;9.124;2024-03-06T12:43:55;10.30;;;6.80;;
79173;SDS011;68599;49.142;9.124;2024-03-06T12:46:23;12.10;;;6.30;;
79173;SDS011;68599;49.142;9.124;2024-03-06T12:51:17;10.20;;;5.40;;
79173;SDS011;68599;49.142;9.124;2024-03-06T12:53:43;10.00;;;4.70;;
79173;SDS011;68599;49.142;9.124;2024-03-06T12:56:10;8.30;;;5.20;;
79173;SDS011;68599;49.142;9.124;2024-03-06T12:58:37;9.00;;;5.70;;
79173;SDS011;68599;49.142;9.124;2024-03-06T13:01:03;8.20;;;5.30;;
79173;SDS011;68599;49.142;9.124;2024-03-06T13:03:32;8.40;;;5.00;;
79173;SDS011;68599;49.142;9.124;2024-03-06T13:05:58;10.20;;;5.50;;
79173;SDS011;68599;49.142;9.124;2024-03-06T13:08:25;10.80;;;5.40;;
79173;SDS011;68599;49.142;9.124;2024-03-06T13:10:52;9.70;;;5.60;;
79173;SDS011;68599;49.142;9.124;2024-03-06T13:13:18;10.10;;;5.90;;
79173;SDS011;68599;49.142;9.124;2024-03-06T13:15:45;10.00;;;6.30;;
79173;SDS011;68599;49.142;9.124;2024-03-06T13:18:14;12.20;;;6.00;;
79173;SDS011;68599;49.142;9.124;2024-03-06T13:20:42;10.40;;;5.30;;
79173;SDS011;68599;49.142;9.124;2024-03-06T13:23:10;8.10;;;5.10;;
79173;SDS011;68599;49.142;9.124;2024-03-06T13:25:37;9.20;;;5.50;;
79173;SDS011;68599;49.142;9.124;2024-03-06T13:28:04;13.30;;;7.00;;
79173;SDS011;68599;49.142;9.124;2024-03-06T13:30:31;10.30;;;6.70;;
79173;SDS011;68599;49.142;9.124;2024-03-06T13:32:58;10.60;;;6.40;;
79173;SDS011;68599;49.142;9.124;2024-03-06T13:35:25;13.00;;;6.50;;
79173;SDS011;68599;49.142;9.124;2024-03-06T13:37:52;10.30;;;6.40;;
79173;SDS011;68599;49.142;9.124;2024-03-06T13:40:20;10.40;;;6.40;;
79173;SDS011;68599;49.142;9.124;2024-03-06T13:42:46;11.60;;;5.90;;
79173;SDS011;68599;49.142;9.124;2024-03-06T13:45:13;7.30;;;4.70;;
79173;SDS011;68599;49.142;9.124;2024-03-06T13:50:09;12.20;;;6.20;;
79173;SDS011;68599;49.142;9.124;2024-03-06T13:52:38;9.20;;;5.60;;
79173;SDS011;68599;49.142;9.124;2024-03-06T13:55:05;8.00;;;5.30;;
79173;SDS011;68599;49.142;9.124;2024-03-06T13:57:33;13.30;;;7.70;;
79173;SDS011;68599;49.142;9.124;2024-03-06T14:00:04;11.00;;;6.10;;
79173;SDS011;68599;49.142;9.124;2024-03-06T14:02:44;10.40;;;6.40;;
79173;SDS011;68599;49.142;9.124;2024-03-06T14:05:12;12.90;;;7.00;;
79173;SDS011;68599;49.142;9.124;2024-03-06T14:07:39;12.60;;;6.40;;
79173;SDS011;68599;49.142;9.124;2024-03-06T14:10:06;10.10;;;5.80;;
79173;SDS011;68599;49.142;9.124;2024-03-06T14:12:37;10.00;;;6.10;;
79173;SDS011;68599;49.142;9.124;2024-03-06T14:15:06;12.80;;;6.60;;
79173;SDS011;68599;49.142;9.124;2024-03-06T14:17:39;10.40;;;6.30;;
79173;SDS011;68599;49.142;9.124;2024-03-06T14:20:06;12.20;;;6.70;;
79173;SDS011;68599;49.142;9.124;2024-03-06T14:22:33;10.70;;;6.40;;
79173;SDS011;68599;49.142;9.124;2024-03-06T14:24:59;11.70;;;6.10;;
79173;SDS011;68599;49.142;9.124;2024-03-06T14:27:26;10.10;;;6.40;;
79173;SDS011;68599;49.142;9.124;2024-03-06T14:29:53;10.70;;;6.40;;
79173;SDS011;68599;49.142;9.124;2024-03-06T14:32:20;10.70;;;6.00;;
79173;SDS011;68599;49.142;9.124;2024-03-06T14:34:47;9.90;;;6.20;;
79173;SDS011;68599;49.142;9.124;2024-03-06T14:37:14;9.00;;;6.30;;
79173;SDS011;68599;49.142;9.124;2024-03-06T14:39:40;10.60;;;6.50;;
79173;SDS011;68599;49.142;9.124;2024-03-06T14:42:07;11.30;;;6.40;;
79173;SDS011;68599;49.142;9.124;2024-03-06T14:44:34;11.10;;;6.10;;
79173;SDS011;68599;49.142;9.124;2024-03-06T14:47:00;8.70;;;5.70;;
79173;SDS011;68599;49.142;9.124;2024-03-06T14:49:27;10.80;;;6.00;;
79173;SDS011;68599;49.142;9.124;2024-03-06T14:51:53;12.20;;;6.50;;
79173;SDS011;68599;49.142;9.124;2024-03-06T14:54:21;9.10;;;6.40;;
79173;SDS011;68599;49.142;9.124;2024-03-06T14:56:52;11.20;;;6.70;;
79173;SDS011;68599;49.142;9.124;2024-03-06T14:59:20;12.30;;;6.80;;
79173;SDS011;68599;49.142;9.124;2024-03-06T15:01:48;12.10;;;7.00;;
79173;SDS011;68599;49.142;9.124;2024-03-06T15:04:17;9.50;;;6.10;;
79173;SDS011;68599;49.142;9.124;2024-03-06T15:09:11;9.80;;;5.80;;
79173;SDS011;68599;49.142;9.124;2024-03-06T15:11:39;9.70;;;5.70;;
79173;SDS011;68599;49.142;9.124;2024-03-06T15:14:07;10.60;;;6.40;;
79173;SDS011;68599;49.142;9.124;2024-03-06T15:16:34;13.40;;;8.00;;
79173;SDS011;68599;49.142;9.124;2024-03-06T15:19:02;10.30;;;6.40;;
79173;SDS011;68599;49.142;9.124;2024-03-06T15:21:29;10.40;;;6.70;;
79173;SDS011;68599;49.142;9.124;2024-03-06T15:23:57;15.00;;;7.30;;
79173;SDS011;68599;49.142;9.124;2024-03-06T15:26:24;12.40;;;7.10;;
79173;SDS011;68599;49.142;9.124;2024-03-06T15:28:50;13.30;;;7.60;;
79173;SDS011;68599;49.142;9.124;2024-03-06T15:31:19;10.90;;;6.60;;
79173;SDS011;68599;49.142;9.124;2024-03-06T15:33:45;12.30;;;7.70;;
79173;SDS011;68599;49.142;9.124;2024-03-06T15:36:14;11.20;;;6.50;;
79173;SDS011;68599;49.142;9.124;2024-03-06T15:38:42;12.30;;;6.80;;
79173;SDS011;68599;49.142;9.124;2024-03-06T15:41:09;11.50;;;6.80;;
79173;SDS011;68599;49.142;9.124;2024-03-06T15:43:36;10.60;;;6.20;;